Time;durP1;ratioP1;P1;durP2;ratioP2;P2;SDS_P1;SDS_P2;PMS_P1;PMS_P2;Temp;Humidity;BMP_temperature;BMP_pressure;BME280_temperature;BME280_humidity;BME280_pressure;Samples;Min_cycle;Max_cycle;Signal;HPM_P1;HPM_P2
2023/09/21 00:02:17;;;;;;;9.00;6.97;;;;;;;17.15;94.40;100558.73;1726059;83;21062;-69
2023/09/21 00:04:48;;;;;;;9.35;6.72;;;;;;;17.16;94.44;100548.50;1726176;83;20991;-68
2023/09/21 00:07:18;;;;;;;9.95;6.62;;;;;;;17.15;94.55;100553.73;1694996;83;21094;-69
2023/09/21 00:09:47;;;;;;;12.20;7.20;;;;;;;17.14;94.55;100551.50;1726119;83;21435;-69
2023/09/21 00:12:16;;;;;;;9.58;6.70;;;;;;;17.12;94.60;100557.82;1725798;83;21074;-68
2023/09/21 00:14:46;;;;;;;9.20;6.65;;;;;;;17.14;94.65;100554.27;1726068;83;21541;-69
2023/09/21 00:17:17;;;;;;;11.28;6.78;;;;;;;17.13;94.53;100558.66;1726076;83;21074;-69
2023/09/21 00:19:46;;;;;;;8.95;6.53;;;;;;;17.09;94.51;100555.53;1725942;83;21007;-69
2023/09/21 00:22:16;;;;;;;9.28;6.65;;;;;;;17.06;94.57;100561.53;1726025;83;21038;-68
2023/09/21 00:24:47;;;;;;;8.60;6.85;;;;;;;17.05;94.71;100562.08;1725928;83;21030;-70
2023/09/21 00:27:18;;;;;;;10.35;6.28;;;;;;;17.06;94.81;100554.08;1726069;83;21085;-69
2023/09/21 00:29:49;;;;;;;11.48;7.00;;;;;;;17.09;94.80;100554.14;1726026;83;21042;-69
2023/09/21 00:32:18;;;;;;;9.38;6.85;;;;;;;17.10;94.68;100558.59;1694469;83;21056;-68
2023/09/21 00:34:50;;;;;;;8.88;6.33;;;;;;;17.09;94.66;100556.91;1725884;83;21483;-70
2023/09/21 00:37:17;;;;;;;12.03;6.62;;;;;;;17.08;94.55;100549.69;1709598;83;21054;-68
2023/09/21 00:39:48;;;;;;;10.88;6.80;;;;;;;17.03;94.41;100560.09;1686774;85;21503;-69
2023/09/21 00:42:17;;;;;;;10.78;6.50;;;;;;;17.03;94.46;100560.62;1686906;84;20998;-69
2023/09/21 00:44:47;;;;;;;8.43;6.12;;;;;;;17.03;94.37;100555.09;1686906;84;21042;-68
2023/09/21 00:47:15;;;;;;;8.43;6.47;;;;;;;17.02;94.42;100554.78;1686729;84;21512;-69
2023/09/21 00:49:46;;;;;;;8.55;6.50;;;;;;;16.99;94.38;100556.09;1667504;85;21077;-68
2023/09/21 00:52:16;;;;;;;10.55;7.22;;;;;;;16.96;94.45;100551.58;1686901;85;21022;-69
2023/09/21 00:54:46;;;;;;;8.48;6.67;;;;;;;16.94;94.48;100554.58;1686950;84;20998;-69
2023/09/21 00:57:19;;;;;;;10.98;6.90;;;;;;;16.94;94.51;100559.27;1686793;85;21011;-69
2023/09/21 00:59:48;;;;;;;9.78;6.80;;;;;;;16.95;94.50;100560.96;1686907;85;21034;-69
2023/09/21 01:02:18;;;;;;;11.90;7.08;;;;;;;16.94;94.52;100564.27;1686718;84;21034;-69
2023/09/21 01:04:47;;;;;;;9.80;7.20;;;;;;;16.93;94.46;100561.73;1687070;85;21034;-69
2023/09/21 01:07:22;;;;;;;10.40;6.75;;;;;;;16.89;94.35;100561.88;1666410;85;21085;-69
2023/09/21 01:09:52;;;;;;;11.20;7.10;;;;;;;16.86;94.27;100566.49;1686916;84;21483;-68
2023/09/21 01:12:22;;;;;;;8.68;6.85;;;;;;;16.82;94.34;100566.12;1686985;85;21194;-69
2023/09/21 01:15:10;;;;;;;9.05;7.25;;;;;;;16.83;94.41;100564.20;1686998;85;21082;-69
2023/09/21 01:17:45;;;;;;;11.35;7.78;;;;;;;16.85;94.38;100569.80;1668745;85;21026;-68
2023/09/21 01:22:50;;;;;;;8.80;7.00;;;;;;;16.84;94.42;100570.03;1686882;85;21026;-69
2023/09/21 01:25:18;;;;;;;10.78;7.42;;;;;;;16.82;94.50;100577.73;1686731;85;21074;-68
2023/09/21 01:27:51;;;;;;;9.10;7.30;;;;;;;16.80;94.55;100573.81;1687042;84;21006;-69
2023/09/21 01:30:18;;;;;;;12.25;8.68;;;;;;;16.77;94.65;100572.36;1686981;85;21173;-70
2023/09/21 01:32:48;;;;;;;10.05;7.67;;;;;;;16.77;94.66;100570.13;1686814;85;21038;-70
2023/09/21 01:35:19;;;;;;;9.53;7.37;;;;;;;16.77;94.75;100573.73;1686927;85;20994;-70
2023/09/21 01:37:48;;;;;;;12.40;7.00;;;;;;;16.79;94.76;100569.36;1683388;83;21070;-69
2023/09/21 01:40:19;;;;;;;10.82;8.05;;;;;;;16.82;94.65;100558.36;1725901;83;21515;-70
2023/09/21 01:42:50;;;;;;;14.75;9.58;;;;;;;16.83;94.57;100571.11;1726197;83;21050;-70
2023/09/21 01:45:20;;;;;;;10.95;7.60;;;;;;;16.79;94.56;100566.05;1726015;83;21022;-70
2023/09/21 01:47:49;;;;;;;10.13;7.15;;;;;;;16.76;94.62;100565.67;1725918;83;21494;-70
2023/09/21 01:50:21;;;;;;;11.68;6.78;;;;;;;16.75;94.83;100571.75;1726100;83;21054;-68
2023/09/21 01:52:50;;;;;;;10.80;7.25;;;;;;;16.76;94.96;100573.97;1694679;83;21062;-69
2023/09/21 01:55:20;;;;;;;14.00;7.05;;;;;;;16.75;94.81;100580.59;1726165;83;20994;-69
2023/09/21 01:57:50;;;;;;;8.38;6.70;;;;;;;16.73;94.99;100572.52;1726199;83;20983;-69
2023/09/21 02:00:25;;;;;;;10.85;7.20;;;;;;;16.75;95.17;100580.59;1726115;83;21063;-69
2023/09/21 02:02:53;;;;;;;9.85;6.90;;;;;;;16.76;95.22;100581.73;1725955;83;21575;-69
2023/09/21 02:05:23;;;;;;;9.90;7.60;;;;;;;16.74;95.32;100579.74;1726119;83;21078;-69
2023/09/21 02:07:54;;;;;;;9.45;7.47;;;;;;;16.74;95.39;100581.66;1673173;83;21093;-69
2023/09/21 02:10:24;;;;;;;11.08;7.53;;;;;;;16.74;95.35;100579.74;1726053;83;21035;-70
2023/09/21 02:13:00;;;;;;;10.90;7.80;;;;;;;16.73;95.26;100583.59;1725921;83;21114;-69
2023/09/21 02:15:31;;;;;;;11.12;7.55;;;;;;;16.73;95.22;100581.36;1726167;83;21062;-69
2023/09/21 02:18:02;;;;;;;9.58;7.55;;;;;;;16.72;95.10;100577.75;1726014;83;20987;-70
2023/09/21 02:20:32;;;;;;;9.95;7.50;;;;;;;16.71;94.94;100580.21;1726086;83;21443;-69
2023/09/21 02:23:02;;;;;;;9.03;7.15;;;;;;;16.68;94.73;100571.00;1726164;83;21067;-69
2023/09/21 02:25:41;;;;;;;9.88;7.45;;;;;;;16.67;94.74;100576.76;1726126;83;21034;-70
2023/09/21 02:28:12;;;;;;;11.85;7.83;;;;;;;16.65;94.69;100571.97;1695641;83;21111;-70
2023/09/21 02:30:47;;;;;;;10.88;7.40;;;;;;;16.63;94.57;100568.05;1725872;83;21483;-69
2023/09/21 02:33:15;;;;;;;10.28;7.72;;;;;;;16.61;94.50;100570.20;1725743;83;21074;-69
2023/09/21 02:35:46;;;;;;;10.40;7.30;;;;;;;16.59;94.54;100565.98;1725965;83;21034;-70
2023/09/21 02:38:17;;;;;;;9.70;7.20;;;;;;;16.55;94.58;100564.22;1716546;83;21126;-69
2023/09/21 02:40:47;;;;;;;10.03;7.40;;;;;;;16.53;94.66;100558.08;1669177;84;21051;-68
2023/09/21 02:43:17;;;;;;;12.13;7.30;;;;;;;16.49;94.72;100568.77;1709409;83;21043;-69
2023/09/21 02:45:46;;;;;;;9.03;6.95;;;;;;;16.47;94.99;100576.98;1709340;84;21055;-69
2023/09/21 02:48:16;;;;;;;10.63;7.03;;;;;;;16.51;95.21;100569.07;1691352;84;21491;-68
2023/09/21 02:50:50;;;;;;;10.53;6.90;;;;;;;16.53;95.28;100566.91;1709507;84;21035;-70
2023/09/21 02:53:21;;;;;;;8.00;6.33;;;;;;;16.53;95.25;100565.00;1709609;84;21459;-70
2023/09/21 02:55:51;;;;;;;8.95;6.62;;;;;;;16.53;95.38;100566.37;1709618;84;21016;-70
2023/09/21 02:58:21;;;;;;;8.55;6.28;;;;;;;16.55;95.34;100568.38;1709512;84;21047;-69
2023/09/21 03:00:54;;;;;;;9.70;6.50;;;;;;;16.56;95.10;100568.67;1709460;84;21246;-68
2023/09/21 03:03:24;;;;;;;9.40;6.42;;;;;;;16.55;94.94;100572.52;1709447;84;21035;-70
2023/09/21 03:05:56;;;;;;;11.88;6.90;;;;;;;16.54;95.05;100576.91;1709611;84;21098;-68
2023/09/21 03:08:25;;;;;;;7.85;6.42;;;;;;;16.53;95.37;100576.59;1709471;84;21019;-68
2023/09/21 03:10:56;;;;;;;9.33;6.87;;;;;;;16.52;95.47;100577.67;1709479;84;21039;-69
2023/09/21 03:13:27;;;;;;;10.82;7.17;;;;;;;16.51;95.59;100580.98;1709425;84;21083;-69
2023/09/21 03:15:59;;;;;;;8.05;6.15;;;;;;;16.52;95.63;100574.91;1709354;84;21007;-69
2023/09/21 03:18:31;;;;;;;8.73;6.65;;;;;;;16.51;95.62;100582.90;1709214;84;21079;-70
2023/09/21 03:21:10;;;;;;;11.33;6.90;;;;;;;16.50;95.64;100583.44;1709296;84;21031;-70
2023/09/21 03:23:39;;;;;;;9.98;7.62;;;;;;;16.50;95.69;100587.59;1709509;84;21074;-68
2023/09/21 03:26:14;;;;;;;9.43;7.28;;;;;;;16.49;95.65;100589.52;1709428;84;21055;-69
2023/09/21 03:28:45;;;;;;;11.97;8.03;;;;;;;16.47;95.62;100582.52;1709253;84;21027;-70
2023/09/21 03:31:15;;;;;;;11.22;6.75;;;;;;;16.43;95.68;100582.14;1709541;84;21525;-70
2023/09/21 03:33:47;;;;;;;10.15;6.95;;;;;;;16.44;95.81;100589.90;1709271;84;21047;-69
2023/09/21 03:36:17;;;;;;;11.60;7.25;;;;;;;16.45;95.87;100597.97;1711260;84;21039;-69
2023/09/21 03:38:49;;;;;;;11.93;7.10;;;;;;;16.47;95.91;100594.97;1709245;84;21070;-69
2023/09/21 03:41:18;;;;;;;11.25;7.15;;;;;;;16.49;95.89;100597.81;1709263;84;21754;-69
2023/09/21 03:43:49;;;;;;;9.68;6.92;;;;;;;16.51;95.89;100604.49;1709543;84;21975;-71
2023/09/21 03:46:18;;;;;;;8.55;6.53;;;;;;;16.52;95.83;100597.88;1709262;83;21091;-68
2023/09/21 03:48:49;;;;;;;9.20;6.97;;;;;;;16.54;95.71;100592.13;1709267;84;21052;-68
2023/09/21 03:51:19;;;;;;;10.80;6.90;;;;;;;16.53;95.73;100598.19;1709259;84;21051;-69
2023/09/21 03:53:49;;;;;;;10.05;7.10;;;;;;;16.53;95.74;100596.80;1709287;84;21051;-69
2023/09/21 03:56:19;;;;;;;9.35;6.83;;;;;;;16.51;95.82;100598.11;1709260;84;21032;-69
2023/09/21 03:58:48;;;;;;;9.48;7.28;;;;;;;16.52;95.97;100595.66;1709345;84;21043;-69
2023/09/21 04:01:18;;;;;;;9.75;7.20;;;;;;;16.51;95.96;100592.05;1709475;84;21512;-70
2023/09/21 04:03:55;;;;;;;8.53;6.30;;;;;;;16.51;95.93;100593.97;1709257;84;21316;-68
2023/09/21 04:06:24;;;;;;;10.18;7.25;;;;;;;16.52;95.94;100597.04;1709430;84;21090;-68
2023/09/21 04:08:53;;;;;;;10.93;7.33;;;;;;;16.52;95.96;100599.80;1709605;84;21066;-69
2023/09/21 04:11:25;;;;;;;11.50;6.17;;;;;;;16.55;96.03;100597.42;1709260;84;21067;-70
2023/09/21 04:13:54;;;;;;;8.83;6.72;;;;;;;16.58;95.94;100601.64;1709204;84;21003;-68
2023/09/21 04:16:26;;;;;;;9.93;6.97;;;;;;;16.59;95.87;100606.09;1709978;83;21039;-69
2023/09/21 04:18:57;;;;;;;9.43;6.97;;;;;;;16.58;95.91;100606.64;1709498;84;21035;-70
2023/09/21 04:21:26;;;;;;;9.30;7.25;;;;;;;16.59;95.79;100605.56;1709324;84;21035;-70
2023/09/21 04:23:56;;;;;;;9.55;7.75;;;;;;;16.58;95.81;100604.41;1709447;84;21035;-70
2023/09/21 04:26:25;;;;;;;10.15;6.60;;;;;;;16.59;96.00;100604.17;1709198;84;21524;-69
2023/09/21 04:28:55;;;;;;;10.13;6.22;;;;;;;16.64;96.03;100607.63;1709204;84;21443;-70
2023/09/21 04:31:24;;;;;;;13.60;7.37;;;;;;;16.68;95.96;100611.11;1709379;84;21031;-70
2023/09/21 04:33:53;;;;;;;9.20;6.10;;;;;;;16.68;95.83;100599.20;1709649;84;21066;-70
2023/09/21 04:36:24;;;;;;;10.08;6.55;;;;;;;16.68;95.86;100608.89;1709517;84;21023;-69
2023/09/21 04:38:53;;;;;;;12.13;7.35;;;;;;;16.68;95.84;100609.73;1697255;83;21074;-70
2023/09/21 04:41:22;;;;;;;14.73;8.73;;;;;;;16.67;95.94;100606.66;1686977;84;21064;-69
2023/09/21 04:43:51;;;;;;;13.10;7.28;;;;;;;16.69;95.90;100607.80;1687172;85;21054;-71
2023/09/21 04:46:24;;;;;;;10.03;7.45;;;;;;;16.68;95.94;100609.73;1686979;84;21507;-70
2023/09/21 04:48:54;;;;;;;10.03;7.05;;;;;;;16.68;96.04;100613.03;1687013;85;21158;-69
2023/09/21 04:51:23;;;;;;;11.65;8.30;;;;;;;16.70;96.17;100616.41;1686869;84;21157;-69
2023/09/21 04:53:53;;;;;;;14.38;9.48;;;;;;;16.72;96.21;100609.57;1666251;85;21070;-70
2023/09/21 04:56:22;;;;;;;12.10;8.88;;;;;;;16.75;96.19;100611.88;1686940;85;21447;-69
2023/09/21 04:58:55;;;;;;;14.65;9.00;;;;;;;16.78;96.09;100614.71;1686953;85;21087;-70
2023/09/21 05:01:25;;;;;;;13.20;8.98;;;;;;;16.79;96.08;100617.24;1687330;85;21073;-70
2023/09/21 05:03:56;;;;;;;13.38;8.98;;;;;;;16.84;96.10;100608.24;1686949;85;21047;-71
2023/09/21 05:06:26;;;;;;;11.63;8.60;;;;;;;16.91;96.05;100611.80;1686972;85;21038;-69
2023/09/21 05:08:57;;;;;;;15.00;9.68;;;;;;;16.93;95.88;100608.25;1686994;85;21126;-70
2023/09/21 05:11:27;;;;;;;18.92;9.58;;;;;;;16.96;95.88;100614.70;1687064;85;21093;-70
2023/09/21 05:13:58;;;;;;;15.18;9.35;;;;;;;17.00;95.81;100619.23;1686994;84;21050;-69
2023/09/21 05:16:27;;;;;;;39.80;26.00;;;;;;;17.05;95.75;100615.22;1686867;84;21439;-69
2023/09/21 05:18:55;;;;;;;24.77;16.93;;;;;;;17.09;95.52;100620.59;1687152;85;21062;-68
2023/09/21 05:21:26;;;;;;;17.45;12.78;;;;;;;17.13;95.40;100626.50;1686935;85;21488;-69
2023/09/21 05:23:55;;;;;;;20.08;11.70;;;;;;;17.15;95.34;100619.64;1686963;85;21482;-68
2023/09/21 05:26:26;;;;;;;16.80;10.95;;;;;;;17.20;95.40;100614.79;1687014;85;21026;-69
2023/09/21 05:28:56;;;;;;;18.42;11.18;;;;;;;17.26;95.42;100621.61;1686847;84;21555;-70
2023/09/21 05:31:25;;;;;;;17.12;11.18;;;;;;;17.31;95.44;100617.59;1687214;85;20995;-70
2023/09/21 05:33:55;;;;;;;16.02;11.10;;;;;;;17.40;95.45;100617.55;1687226;85;21121;-69
2023/09/21 05:36:25;;;;;;;13.40;10.95;;;;;;;17.48;95.45;100614.14;1667836;85;21499;-70
2023/09/21 05:38:55;;;;;;;16.17;11.08;;;;;;;17.57;95.36;100614.97;1686931;83;21109;-70
2023/09/21 05:41:24;;;;;;;16.45;11.28;;;;;;;17.64;95.30;100620.39;1686813;85;21117;-69
2023/09/21 05:43:53;;;;;;;18.10;11.85;;;;;;;17.70;95.27;100620.31;1686955;85;21069;-69
2023/09/21 05:46:23;;;;;;;15.83;10.60;;;;;;;17.78;95.18;100627.44;1686922;85;21030;-70
2023/09/21 05:48:52;;;;;;;20.90;10.88;;;;;;;17.85;95.11;100628.16;1686787;85;21057;-70
2023/09/21 05:51:22;;;;;;;13.10;9.65;;;;;;;17.91;95.05;100627.20;1686713;85;21031;-69
2023/09/21 05:53:52;;;;;;;13.22;9.35;;;;;;;17.98;94.76;100629.85;1686881;84;21069;-72
2023/09/21 05:56:22;;;;;;;14.15;9.35;;;;;;;18.06;94.33;100626.72;1686992;84;20994;-67
2023/09/21 05:58:51;;;;;;;15.25;9.38;;;;;;;18.14;93.84;100622.73;1686955;85;21062;-70
2023/09/21 06:01:20;;;;;;;19.07;9.40;;;;;;;18.24;93.37;100625.23;1687132;85;21034;-69
2023/09/21 06:03:52;;;;;;;10.13;6.83;;;;;;;18.34;92.84;100624.62;1686927;84;21418;-70
2023/09/21 06:06:24;;;;;;;37.53;11.78;;;;;;;18.43;91.54;100617.61;1686721;84;21046;-70
2023/09/21 06:08:53;;;;;;;16.82;8.90;;;;;;;18.56;89.89;100615.10;1667921;85;21102;-70
2023/09/21 06:11:23;;;;;;;9.03;6.10;;;;;;;18.68;88.63;100618.72;1687042;85;21066;-70
2023/09/21 06:13:55;;;;;;;8.83;6.03;;;;;;;18.77;85.97;100623.34;1686957;85;21093;-70
2023/09/21 06:16:24;;;;;;;8.73;5.40;;;;;;;18.88;83.47;100621.95;1686810;84;21061;-70
2023/09/21 06:18:53;;;;;;;10.93;5.85;;;;;;;18.98;80.81;100615.20;1686719;84;21082;-70
2023/09/21 06:21:22;;;;;;;7.30;4.85;;;;;;;19.10;79.40;100622.64;1686911;85;21027;-70
2023/09/21 06:23:52;;;;;;;7.42;4.92;;;;;;;19.21;76.67;100623.98;1686863;85;21034;-70
2023/09/21 06:26:22;;;;;;;9.70;5.37;;;;;;;19.33;75.08;100623.37;1687111;85;21061;-71
2023/09/21 06:28:53;;;;;;;14.50;7.42;;;;;;;19.44;74.27;100623.00;1686783;85;21030;-71
2023/09/21 06:31:23;;;;;;;10.08;6.40;;;;;;;19.52;73.46;100628.73;1686823;85;21038;-70
2023/09/21 06:34:01;;;;;;;9.43;5.53;;;;;;;19.60;73.05;100623.63;1686748;84;21062;-71
2023/09/21 06:36:29;;;;;;;8.00;5.62;;;;;;;19.67;72.46;100627.63;1686693;85;21027;-71
2023/09/21 06:39:01;;;;;;;10.23;6.37;;;;;;;19.75;71.86;100627.21;1686912;84;21086;-70
2023/09/21 06:41:30;;;;;;;10.90;6.15;;;;;;;19.82;71.69;100625.11;1687163;85;21443;-70
2023/09/21 06:44:00;;;;;;;9.68;5.80;;;;;;;19.91;71.62;100629.69;1686788;85;21466;-69
2023/09/21 06:46:29;;;;;;;8.85;6.05;;;;;;;19.97;71.22;100633.40;1686677;85;21038;-70
2023/09/21 06:49:01;;;;;;;7.95;5.75;;;;;;;20.02;70.91;100631.54;1686894;85;21470;-70
2023/09/21 06:51:31;;;;;;;9.65;5.83;;;;;;;20.10;70.60;100621.92;1686669;84;21050;-70
2023/09/21 06:54:01;;;;;;;8.43;5.47;;;;;;;20.18;69.91;100625.69;1686860;85;21041;-71
2023/09/21 06:56:31;;;;;;;8.05;5.15;;;;;;;20.29;69.20;100633.09;1686911;85;21367;-70
2023/09/21 06:58:59;;;;;;;8.55;5.45;;;;;;;20.37;68.17;100633.20;1686913;85;21073;-70
2023/09/21 07:01:32;;;;;;;8.08;5.30;;;;;;;20.44;67.54;100636.12;1686998;85;21074;-70
2023/09/21 07:04:02;;;;;;;9.70;5.20;;;;;;;20.50;66.62;100631.46;1686780;85;21113;-70
2023/09/21 07:06:31;;;;;;;9.85;5.15;;;;;;;20.56;66.21;100638.23;1686840;85;21118;-72
2023/09/21 07:09:04;;;;;;;12.30;5.80;;;;;;;20.60;65.29;100630.76;1686864;85;21030;-71
2023/09/21 07:11:33;;;;;;;7.87;5.17;;;;;;;20.62;65.39;100630.79;1686766;85;21089;-72
2023/09/21 07:14:04;;;;;;;6.33;4.92;;;;;;;20.64;65.28;100629.98;1686936;84;21050;-74
2023/09/21 07:16:33;;;;;;;8.90;5.62;;;;;;;20.63;65.17;100624.67;1686750;85;21061;-70
2023/09/21 07:19:02;;;;;;;8.43;5.17;;;;;;;20.64;65.28;100622.17;1686928;85;21034;-70
2023/09/21 07:21:33;;;;;;;8.08;5.05;;;;;;;20.65;65.16;100621.92;1686692;84;21066;-71
2023/09/21 07:24:05;;;;;;;9.30;5.47;;;;;;;20.65;65.31;100625.25;1686780;85;21245;-71
2023/09/21 07:26:34;;;;;;;8.50;5.45;;;;;;;20.66;65.49;100627.78;1686692;84;21085;-70
2023/09/21 07:29:05;;;;;;;7.12;5.22;;;;;;;20.68;65.51;100623.34;1686926;84;21038;-69
2023/09/21 07:31:36;;;;;;;9.78;5.35;;;;;;;20.67;65.45;100621.66;1686931;85;21046;-69
2023/09/21 07:34:06;;;;;;;9.35;5.25;;;;;;;20.68;65.69;100622.79;1686732;85;21034;-72
2023/09/21 07:36:39;;;;;;;8.78;5.65;;;;;;;20.71;65.68;100627.00;1667742;85;21050;-71
2023/09/21 07:39:10;;;;;;;12.55;5.83;;;;;;;20.75;65.61;100623.98;1696012;83;21113;-70
2023/09/21 07:41:40;;;;;;;6.35;4.60;;;;;;;20.81;65.37;100630.79;1726046;83;21042;-70
2023/09/21 07:44:11;;;;;;;13.58;5.05;;;;;;;20.89;64.77;100628.94;1725893;83;21026;-71
2023/09/21 07:46:40;;;;;;;7.85;4.83;;;;;;;20.99;64.39;100630.16;1726233;83;21042;-72
2023/09/21 07:49:09;;;;;;;8.70;5.10;;;;;;;21.21;63.95;100629.56;1726097;83;21026;-71
2023/09/21 07:51:39;;;;;;;9.93;5.20;;;;;;;21.53;63.45;100617.68;1725371;81;21021;-71
2023/09/21 07:54:12;;;;;;;7.37;4.62;;;;;;;21.98;62.36;100625.58;1745951;82;21123;-71
2023/09/21 07:56:50;;;;;;;7.85;4.50;;;;;;;22.37;60.33;100620.05;1726943;82;21041;-71
2023/09/21 07:59:19;;;;;;;6.12;4.50;;;;;;;22.78;58.76;100618.88;1739732;82;21080;-72
2023/09/21 08:01:53;;;;;;;7.62;4.47;;;;;;;23.05;57.52;100622.36;1714820;84;21539;-70
2023/09/21 08:04:20;;;;;;;8.15;4.70;;;;;;;23.16;57.09;100627.97;1714373;83;21534;-70
2023/09/21 08:06:49;;;;;;;8.38;4.45;;;;;;;23.16;56.35;100622.38;1714834;84;21502;-71
2023/09/21 08:09:20;;;;;;;6.67;4.22;;;;;;;23.11;56.23;100621.81;1735610;82;21540;-71
2023/09/21 08:11:51;;;;;;;7.50;4.40;;;;;;;23.08;55.79;100622.36;1741313;82;21053;-71
2023/09/21 08:14:20;;;;;;;7.28;4.08;;;;;;;23.02;55.82;100627.09;1743213;82;21044;-71
2023/09/21 08:16:49;;;;;;;6.35;4.47;;;;;;;23.04;55.79;100618.44;1743340;82;21024;-70
2023/09/21 08:19:18;;;;;;;5.33;4.35;;;;;;;23.03;55.25;100620.39;1743331;82;21052;-73
2023/09/21 08:21:48;;;;;;;5.70;4.25;;;;;;;23.02;55.20;100618.71;1743303;82;21060;-70
2023/09/21 08:24:17;;;;;;;6.67;4.12;;;;;;;23.09;55.23;100619.30;1743267;82;21009;-72
2023/09/21 08:26:47;;;;;;;7.25;4.45;;;;;;;23.17;54.95;100615.67;1717767;82;21092;-71
2023/09/21 08:29:16;;;;;;;7.97;5.05;;;;;;;23.29;54.71;100617.66;1714753;84;21035;-70
2023/09/21 08:31:46;;;;;;;8.25;4.37;;;;;;;23.77;54.42;100618.32;1714682;83;21162;-71
2023/09/21 08:34:16;;;;;;;7.40;4.70;;;;;;;24.15;53.29;100607.12;1714545;84;21060;-70
2023/09/21 08:36:45;;;;;;;6.78;4.42;;;;;;;24.42;52.43;100608.20;1714649;84;21127;-71
2023/09/21 08:39:15;;;;;;;7.30;4.08;;;;;;;24.74;51.48;100605.88;1713301;83;21546;-70
2023/09/21 08:41:51;;;;;;;6.92;4.50;;;;;;;24.96;51.30;100609.13;1707539;84;21039;-69
2023/09/21 08:44:20;;;;;;;;;;;;;;;25.15;50.81;100612.70;1709996;84;21051;-71
2023/09/21 08:46:51;;;;;;;7.83;4.65;;;;;;;25.24;49.98;100615.17;1707626;84;20164;-70
2023/09/21 08:49:20;;;;;;;8.25;4.70;;;;;;;25.21;50.27;100611.55;1689471;84;21020;-69
2023/09/21 08:51:51;;;;;;;7.85;4.50;;;;;;;25.21;50.27;100615.75;1707479;84;21103;-71
2023/09/21 08:54:23;;;;;;;5.33;4.20;;;;;;;25.17;50.02;100611.29;1707560;84;21079;-71
2023/09/21 08:56:55;;;;;;;6.95;4.45;;;;;;;25.11;49.75;100620.02;1707560;84;21063;-71
2023/09/21 08:59:25;;;;;;;5.72;4.40;;;;;;;24.93;49.96;100613.91;1716658;82;21015;-70
2023/09/21 09:01:55;;;;;;;8.78;4.50;;;;;;;24.82;50.12;100618.45;1741209;82;21023;-70
2023/09/21 09:04:26;;;;;;;9.25;5.47;;;;;;;24.69;50.04;100605.86;1741183;82;21094;-69
2023/09/21 09:06:57;;;;;;;8.33;4.78;;;;;;;24.58;50.74;100609.27;1741175;82;21035;-69
2023/09/21 09:09:26;;;;;;;10.82;5.15;;;;;;;24.55;51.15;100609.84;1741278;82;21098;-70
2023/09/21 09:11:56;;;;;;;8.38;4.92;;;;;;;24.54;51.19;100605.92;1741323;82;21118;-71
2023/09/21 09:14:26;;;;;;;9.00;4.58;;;;;;;24.55;51.39;100608.44;1715075;82;21560;-71
2023/09/21 09:16:55;;;;;;;10.93;6.78;;;;;;;24.59;51.20;100596.09;1741603;82;21159;-71
2023/09/21 09:19:27;;;;;;;7.28;5.10;;;;;;;24.66;51.49;100603.63;1741447;82;21047;-70
2023/09/21 09:21:56;;;;;;;6.40;4.47;;;;;;;24.71;51.12;100605.05;1741530;82;21007;-71
2023/09/21 09:24:29;;;;;;;8.40;4.65;;;;;;;24.73;51.01;100599.16;1741303;82;21110;-70
2023/09/21 09:27:00;;;;;;;9.43;4.58;;;;;;;24.69;50.83;100601.66;1741584;82;21027;-70
2023/09/21 09:29:33;;;;;;;7.83;5.03;;;;;;;24.64;50.73;100602.52;1741711;82;21068;-70
2023/09/21 09:32:05;;;;;;;6.80;4.58;;;;;;;24.58;50.97;100612.63;1741347;82;21039;-70
2023/09/21 09:34:34;;;;;;;7.25;4.42;;;;;;;24.51;51.01;100613.50;1715140;82;21035;-70
2023/09/21 09:37:05;;;;;;;9.68;4.70;;;;;;;24.40;50.85;100610.45;1714840;82;21383;-70
2023/09/21 09:39:35;;;;;;;8.50;4.55;;;;;;;24.27;51.08;100602.92;1741303;82;21027;-70
2023/09/21 09:42:05;;;;;;;10.75;4.87;;;;;;;24.22;51.62;100616.06;1741614;82;21062;-73
2023/09/21 09:44:34;;;;;;;9.20;4.67;;;;;;;24.22;51.85;100607.10;1741645;82;21165;-71
2023/09/21 09:47:04;;;;;;;5.85;4.80;;;;;;;24.20;51.86;100598.14;1741849;82;21055;-72
2023/09/21 09:49:38;;;;;;;7.28;4.65;;;;;;;24.16;52.09;100604.03;1741651;82;21070;-70
2023/09/21 09:52:06;;;;;;;9.58;4.67;;;;;;;24.16;52.33;100608.80;1717192;82;21079;-70
2023/09/21 09:54:36;;;;;;;9.95;4.72;;;;;;;24.15;52.59;100604.32;1741543;82;21475;-70
2023/09/21 09:57:11;;;;;;;7.47;4.83;;;;;;;24.12;52.97;100607.13;1741662;82;21487;-72
2023/09/21 09:59:37;;;;;;;10.23;5.58;;;;;;;24.12;53.13;100607.13;1735187;82;21054;-72
2023/09/21 10:02:10;;;;;;;7.10;4.65;;;;;;;24.07;53.49;100607.69;1723643;83;21050;-72
2023/09/21 10:04:40;;;;;;;8.70;5.10;;;;;;;24.04;53.59;100606.27;1723907;83;21098;-69
2023/09/21 10:07:10;;;;;;;7.20;4.50;;;;;;;24.07;53.82;100602.93;1697246;83;21067;-70
2023/09/21 10:09:42;;;;;;;6.67;4.83;;;;;;;24.11;53.72;100606.00;1723682;83;21548;-69
2023/09/21 10:12:12;;;;;;;6.50;4.87;;;;;;;24.15;53.73;100599.56;1723812;83;21102;-70
2023/09/21 10:14:43;;;;;;;7.62;5.40;;;;;;;24.22;53.63;100595.06;1723879;83;21062;-72
2023/09/21 10:17:15;;;;;;;6.03;4.50;;;;;;;24.24;53.67;100596.45;1723886;83;21046;-70
2023/09/21 10:19:47;;;;;;;9.15;5.15;;;;;;;24.24;53.64;100586.66;1675902;83;21031;-71
2023/09/21 10:22:28;;;;;;;10.48;5.50;;;;;;;24.21;53.72;100577.98;1697334;83;21450;-70
2023/09/21 10:25:03;;;;;;;8.33;5.35;;;;;;;24.16;53.91;100576.03;1698332;83;21073;-69
2023/09/21 10:27:29;;;;;;;7.97;5.92;;;;;;;24.16;54.21;100583.03;1723869;82;21030;-70
2023/09/21 10:30:06;;;;;;;8.30;5.30;;;;;;;24.14;54.36;100575.48;1723744;83;21061;-72
2023/09/21 10:32:44;;;;;;;7.42;5.40;;;;;;;24.14;54.59;100575.48;1720857;83;21521;-72
2023/09/21 10:35:21;;;;;;;10.08;5.47;;;;;;;24.16;54.75;100576.59;1723578;83;21090;-71
2023/09/21 10:37:51;;;;;;;7.87;5.70;;;;;;;24.14;54.81;100570.44;1723672;83;21039;-73
2023/09/21 10:40:25;;;;;;;10.53;6.10;;;;;;;24.14;55.07;100571.84;1722257;83;21094;-72
2023/09/21 10:42:53;;;;;;;8.53;5.90;;;;;;;24.12;55.30;100576.88;1693321;83;21485;-71
2023/09/21 10:45:24;;;;;;;10.38;6.10;;;;;;;24.12;55.43;100571.28;1720808;83;21066;-73
2023/09/21 10:47:53;;;;;;;12.15;6.05;;;;;;;24.12;55.37;100575.48;1720594;83;21683;-75
2023/09/21 10:50:24;;;;;;;9.33;6.10;;;;;;;24.05;55.47;100581.34;1720405;83;21553;-72
2023/09/21 10:52:55;;;;;;;7.40;6.10;;;;;;;24.01;55.83;100572.67;1720505;83;21063;-73
2023/09/21 10:55:24;;;;;;;9.78;6.42;;;;;;;24.01;55.97;100572.67;1692855;83;21111;-73
2023/09/21 10:57:54;;;;;;;13.32;6.92;;;;;;;24.01;55.87;100570.44;1720483;83;21054;-72
2023/09/21 11:00:25;;;;;;;8.13;6.15;;;;;;;23.99;55.94;100565.13;1685468;83;21110;-70
2023/09/21 11:02:55;;;;;;;12.65;6.40;;;;;;;24.02;56.15;100560.91;1734511;82;21078;-73
2023/09/21 11:05:24;;;;;;;8.35;6.20;;;;;;;24.06;56.19;100559.26;1735968;83;21071;-73
2023/09/21 11:07:55;;;;;;;8.25;6.28;;;;;;;24.12;56.17;100555.89;1717736;82;21102;-72
2023/09/21 11:10:25;;;;;;;10.60;6.20;;;;;;;24.11;56.01;100553.65;1734124;82;21130;-73
2023/09/21 11:12:54;;;;;;;13.95;6.05;;;;;;;24.09;55.89;100550.86;1734368;82;21071;-73
2023/09/21 11:15:25;;;;;;;9.05;6.47;;;;;;;24.06;55.78;100557.86;1735874;83;21036;-73
2023/09/21 11:17:54;;;;;;;12.05;6.45;;;;;;;24.00;55.78;100560.36;1735991;83;21066;-73
2023/09/21 11:20:24;;;;;;;11.43;7.08;;;;;;;23.95;56.00;100558.97;1735942;83;21043;-73
2023/09/21 11:22:54;;;;;;;10.23;6.65;;;;;;;23.91;56.06;100553.66;1736025;83;21060;-74
2023/09/21 11:25:23;;;;;;;8.58;6.95;;;;;;;23.87;56.35;100558.14;1735821;83;21222;-74
2023/09/21 11:27:53;;;;;;;10.23;6.72;;;;;;;23.84;56.70;100558.70;1735890;83;21601;-71
2023/09/21 11:30:22;;;;;;;10.98;6.83;;;;;;;23.80;57.03;100554.80;1736003;83;21007;-73
2023/09/21 11:32:54;;;;;;;11.55;7.20;;;;;;;23.77;57.25;100553.96;1735969;83;21552;-72
2023/09/21 11:35:25;;;;;;;11.22;6.37;;;;;;;23.75;57.12;100554.23;1643234;86;21111;-74
2023/09/21 11:37:55;;;;;;;10.38;6.90;;;;;;;23.71;56.88;100553.97;1603598;87;21158;-71
2023/09/21 11:40:26;;;;;;;13.10;7.20;;;;;;;23.67;56.78;100552.84;1652802;86;21189;-71